Time;durP1;ratioP1;P1;durP2;ratioP2;P2;SDS_P1;SDS_P2;PMS_P1;PMS_P2;Temp;Humidity;BMP_temperature;BMP_pressure;BME280_temperature;BME280_humidity;BME280_pressure;Samples;Min_cycle;Max_cycle;Signal;HPM_P1;HPM_P2
2022/08/12 00:43:16;;;;;;;4.85;4.30;;;24.10;82.70;;;;;;5032633;28;20136;-63
2022/08/12 00:48:28;;;;;;;4.30;3.70;;;24.10;82.80;;;;;;5031796;28;20037;-63
2022/08/12 00:50:54;;;;;;;4.35;3.95;;;24.00;82.80;;;;;;5031409;28;20431;-63
2022/08/12 00:53:21;;;;;;;4.18;3.65;;;24.10;82.90;;;;;;5032490;28;20491;-63
2022/08/12 00:55:48;;;;;;;4.20;3.80;;;24.00;82.80;;;;;;5018856;28;20060;-63
2022/08/12 00:58:18;;;;;;;5.10;4.25;;;24.00;82.80;;;;;;5032310;28;20021;-63
2022/08/12 01:00:44;;;;;;;5.05;4.45;;;24.00;82.90;;;;;;5037187;28;20030;-63
2022/08/12 01:03:14;;;;;;;4.85;4.25;;;24.00;82.90;;;;;;5032394;28;20030;-62
2022/08/12 01:11:31;;;;;;;4.82;4.32;;;24.00;83.20;;;;;;5018571;28;20087;-63
2022/08/12 01:13:59;;;;;;;4.25;3.85;;;23.90;83.30;;;;;;5025718;28;20036;-63
2022/08/12 01:16:25;;;;;;;5.35;4.40;;;23.90;83.30;;;;;;5032391;28;20492;-63
2022/08/12 01:18:53;;;;;;;4.75;4.25;;;23.90;83.50;;;;;;5032105;28;20049;-63
2022/08/12 01:21:55;;;;;;;4.65;3.90;;;23.90;83.70;;;;;;5031022;28;20497;-63
2022/08/12 01:24:55;;;;;;;5.60;4.63;;;23.90;83.50;;;;;;5029541;28;20083;-65
2022/08/12 01:27:23;;;;;;;4.60;4.13;;;23.90;83.60;;;;;;5032001;28;20116;-63
2022/08/12 01:29:51;;;;;;;5.03;4.47;;;23.90;83.70;;;;;;5030632;28;20460;-63
2022/08/12 01:32:20;;;;;;;4.97;4.47;;;23.90;84.50;;;;;;5036261;28;20049;-63
2022/08/12 01:35:11;;;;;;;4.70;4.25;;;23.90;84.00;;;;;;5038328;28;20029;-63
2022/08/12 01:38:00;;;;;;;5.20;4.50;;;23.80;83.90;;;;;;5031801;28;20068;-64
2022/08/12 01:40:32;;;;;;;4.65;4.13;;;23.90;84.10;;;;;;5019334;28;20021;-63
2022/08/12 01:43:04;;;;;;;4.70;4.00;;;23.80;84.10;;;;;;5029996;28;20103;-63
2022/08/12 01:45:31;;;;;;;5.57;4.72;;;23.80;84.20;;;;;;5025869;28;20056;-63
2022/08/12 01:48:15;;;;;;;4.95;4.47;;;23.80;84.30;;;;;;5028080;28;20084;-63
2022/08/12 01:51:02;;;;;;;5.28;4.35;;;23.80;84.50;;;;;;5024980;28;20026;-63
2022/08/12 01:54:03;;;;;;;5.07;4.50;;;23.70;84.50;;;;;;5030386;28;20029;-63
2022/08/12 01:56:42;;;;;;;5.00;4.28;;;23.70;84.30;;;;;;5032331;28;20021;-63
2022/08/12 02:01:57;;;;;;;5.28;4.38;;;23.60;84.70;;;;;;5031688;28;20540;-63
2022/08/12 02:13:50;;;;;;;4.63;4.15;;;23.60;85.00;;;;;;5029373;28;20060;-63
2022/08/12 02:16:26;;;;;;;;;;;23.60;85.00;;;;;;5035804;28;20164;-63
2022/08/12 02:19:16;;;;;;;4.82;3.88;;;23.50;84.80;;;;;;5035150;28;19905;-63
2022/08/12 02:21:54;;;;;;;5.25;4.47;;;23.60;84.70;;;;;;5032034;28;20032;-63
2022/08/12 02:24:22;;;;;;;4.93;4.43;;;23.50;84.60;;;;;;5034341;28;20029;-63
2022/08/12 02:26:50;;;;;;;4.35;3.95;;;23.50;84.70;;;;;;5035093;28;20133;-63
2022/08/12 02:29:18;;;;;;;4.60;4.13;;;23.50;84.70;;;;;;5032335;28;20099;-62
2022/08/12 02:31:47;;;;;;;5.25;4.30;;;23.50;84.70;;;;;;5033965;28;20040;-63
2022/08/12 02:34:15;;;;;;;4.88;4.38;;;23.50;84.70;;;;;;5035421;28;20029;-63
2022/08/12 02:36:44;;;;;;;4.85;4.22;;;23.50;84.70;;;;;;5034849;28;20083;-63
2022/08/12 02:39:14;;;;;;;5.55;4.30;;;23.50;84.70;;;;;;5028735;28;20025;-63
2022/08/12 02:41:45;;;;;;;;;;;23.50;84.80;;;;;;5033481;28;20021;-63
2022/08/12 02:44:14;;;;;;;4.80;4.25;;;23.40;84.80;;;;;;5033978;28;19952;-63
2022/08/12 02:46:42;;;;;;;5.25;4.40;;;23.40;84.80;;;;;;5031488;28;20055;-63
2022/08/12 02:49:30;;;;;;;5.05;4.55;;;23.40;84.80;;;;;;5034428;28;20108;-63
2022/08/12 02:51:58;;;;;;;5.35;4.85;;;23.40;84.90;;;;;;5033002;28;20076;-63
2022/08/12 02:54:25;;;;;;;4.88;4.00;;;23.40;85.00;;;;;;5033585;28;20048;-63
2022/08/12 02:56:51;;;;;;;4.97;4.43;;;23.40;85.00;;;;;;5034628;28;20521;-63
2022/08/12 02:59:21;;;;;;;5.53;4.95;;;23.40;85.00;;;;;;5034338;28;20063;-63
2022/08/12 03:01:52;;;;;;;5.10;4.60;;;23.40;84.90;;;;;;5033149;28;20022;-63
2022/08/12 03:04:31;;;;;;;5.93;4.78;;;23.40;84.60;;;;;;5034526;28;20045;-63
2022/08/12 03:07:19;;;;;;;5.25;4.75;;;23.40;84.60;;;;;;5034298;28;20038;-62
2022/08/12 03:09:50;;;;;;;5.38;4.80;;;23.30;84.50;;;;;;5023230;28;20025;-63
2022/08/12 03:12:17;;;;;;;4.95;4.45;;;23.40;84.70;;;;;;5028912;28;20039;-63
2022/08/12 03:14:43;;;;;;;4.78;4.28;;;23.30;84.80;;;;;;5034233;28;20020;-63
2022/08/12 03:17:18;;;;;;;4.93;4.43;;;23.30;84.60;;;;;;5033214;28;20490;-63
2022/08/12 03:19:44;;;;;;;5.53;4.25;;;23.30;84.50;;;;;;5033771;28;20018;-63
2022/08/12 03:22:13;;;;;;;4.53;4.13;;;23.30;84.50;;;;;;5032864;28;20056;-63
2022/08/12 03:24:44;;;;;;;5.10;4.60;;;23.40;84.70;;;;;;5033745;28;20032;-63
2022/08/12 03:27:12;;;;;;;4.80;4.30;;;23.40;84.60;;;;;;5034190;28;20049;-63
2022/08/12 03:29:40;;;;;;;5.47;4.90;;;23.40;84.70;;;;;;5029155;28;20032;-63
2022/08/12 03:32:07;;;;;;;5.43;4.93;;;23.40;84.70;;;;;;5035526;28;20120;-63
2022/08/12 03:34:35;;;;;;;4.65;4.18;;;23.40;84.70;;;;;;5033683;28;20068;-63
2022/08/12 03:37:03;;;;;;;4.82;4.32;;;23.40;84.60;;;;;;5020687;28;20358;-63
2022/08/12 03:42:39;;;;;;;5.10;4.50;;;23.40;84.50;;;;;;5029560;28;20041;-63
2022/08/12 04:01:57;;;;;;;4.55;4.15;;;23.40;84.20;;;;;;5032436;28;20392;-63
2022/08/12 04:04:35;;;;;;;5.22;4.70;;;23.30;84.20;;;;;;5031034;28;20030;-63
2022/08/12 04:07:07;;;;;;;5.13;4.57;;;23.30;84.10;;;;;;5025477;28;20037;-60
2022/08/12 04:09:34;;;;;;;5.35;4.80;;;23.30;84.10;;;;;;5032142;28;20139;-63
2022/08/12 04:14:47;;;;;;;5.35;4.18;;;23.30;84.00;;;;;;5031182;28;20074;-63
2022/08/12 04:17:14;;;;;;;4.30;3.90;;;23.40;84.10;;;;;;5031464;28;20388;-63
2022/08/12 04:19:41;;;;;;;5.50;4.20;;;23.40;84.00;;;;;;5031000;28;20063;-63
2022/08/12 04:22:06;;;;;;;4.60;4.03;;;23.40;84.00;;;;;;5031585;28;20033;-63
2022/08/12 04:24:33;;;;;;;5.03;4.00;;;23.40;84.00;;;;;;5031412;28;20385;-63
2022/08/12 04:27:00;;;;;;;4.32;3.92;;;23.50;84.00;;;;;;5032103;28;20516;-63
2022/08/12 04:29:26;;;;;;;4.63;4.10;;;23.50;83.80;;;;;;5032938;28;20032;-63
2022/08/12 04:31:54;;;;;;;4.78;4.25;;;23.50;83.80;;;;;;5032376;28;20405;-63
2022/08/12 04:34:23;;;;;;;7.60;5.07;;;23.50;83.50;;;;;;5034278;28;20041;-63
2022/08/12 04:36:49;;;;;;;6.10;5.50;;;23.50;83.50;;;;;;5023525;28;20025;-63
2022/08/12 04:39:16;;;;;;;5.60;5.00;;;23.50;83.50;;;;;;5032878;28;20581;-63
2022/08/12 04:41:43;;;;;;;6.57;5.85;;;23.50;83.50;;;;;;5029094;28;20040;-63
2022/08/12 04:44:09;;;;;;;6.05;5.05;;;23.50;83.20;;;;;;5033303;28;20091;-63
2022/08/12 04:46:35;;;;;;;5.95;5.35;;;23.50;83.00;;;;;;5032235;28;20559;-63
2022/08/12 04:49:02;;;;;;;5.50;5.00;;;23.50;82.90;;;;;;5031628;28;20095;-62
2022/08/12 04:51:28;;;;;;;5.88;5.25;;;23.50;82.80;;;;;;5028389;28;20108;-62
2022/08/12 04:53:54;;;;;;;5.97;5.22;;;23.50;82.90;;;;;;5032543;28;20465;-63
2022/08/12 04:56:20;;;;;;;5.65;5.05;;;23.50;82.90;;;;;;5030913;28;20105;-63
2022/08/12 04:58:46;;;;;;;5.50;5.00;;;23.50;82.90;;;;;;5031763;28;20096;-63
2022/08/12 05:01:12;;;;;;;5.78;5.18;;;23.50;82.90;;;;;;5031835;28;20456;-62
2022/08/12 05:03:38;;;;;;;5.57;4.85;;;23.50;82.90;;;;;;5031779;28;20053;-63
2022/08/12 05:06:05;;;;;;;5.82;5.22;;;23.40;82.80;;;;;;5031104;28;20060;-63
2022/08/12 05:08:31;;;;;;;5.43;4.75;;;23.40;82.90;;;;;;5031367;28;20065;-62
2022/08/12 05:10:57;;;;;;;6.50;5.53;;;23.40;82.80;;;;;;5031837;28;20057;-63
2022/08/12 05:13:32;;;;;;;5.32;4.82;;;23.30;82.80;;;;;;5028979;28;20092;-63
2022/08/12 05:15:58;;;;;;;5.35;4.85;;;23.30;82.80;;;;;;5032073;28;20049;-63
2022/08/12 05:18:24;;;;;;;7.68;5.57;;;23.30;82.90;;;;;;5032049;28;20070;-63
2022/08/12 05:20:50;;;;;;;6.90;6.20;;;23.30;83.00;;;;;;5032026;28;20025;-63
2022/08/12 05:23:19;;;;;;;5.88;5.28;;;23.30;82.90;;;;;;5028814;28;20048;-63
2022/08/12 05:25:48;;;;;;;5.75;4.97;;;23.30;83.50;;;;;;5030537;28;20037;-63
2022/08/12 05:28:17;;;;;;;6.93;5.28;;;23.30;82.80;;;;;;5028015;28;20035;-62
2022/08/12 05:30:44;;;;;;;5.45;4.95;;;23.30;82.90;;;;;;5028275;28;20026;-63
2022/08/12 05:33:12;;;;;;;5.25;4.75;;;23.40;83.10;;;;;;5026295;28;20026;-62
2022/08/12 05:35:40;;;;;;;6.20;5.60;;;23.40;83.20;;;;;;5028274;28;20018;-63
2022/08/12 05:40:51;;;;;;;6.43;5.40;;;23.40;83.10;;;;;;5023746;28;20468;-64
2022/08/12 05:43:17;;;;;;;5.20;4.70;;;23.50;83.30;;;;;;5027404;28;20045;-62
2022/08/12 05:45:44;;;;;;;6.97;5.68;;;23.60;83.10;;;;;;5017796;28;20784;-61
2022/08/12 05:48:10;;;;;;;6.72;5.65;;;23.60;83.00;;;;;;5026566;28;20041;-61
2022/08/12 05:50:36;;;;;;;6.63;5.88;;;23.70;82.80;;;;;;5018650;28;20029;-64
2022/08/12 05:53:02;;;;;;;6.30;5.70;;;23.80;82.70;;;;;;5038387;28;20022;-62
2022/08/12 05:55:27;;;;;;;5.72;5.13;;;23.90;82.50;;;;;;5025402;28;20033;-62
2022/08/12 05:57:54;;;;;;;5.30;4.70;;;23.90;82.10;;;;;;5032203;28;20562;-62
2022/08/12 06:00:24;;;;;;;5.38;4.88;;;24.00;82.20;;;;;;5030038;28;20026;-63
2022/08/12 06:02:59;;;;;;;5.80;5.20;;;24.10;82.10;;;;;;5031635;28;20072;-63
2022/08/12 06:05:36;;;;;;;6.13;5.00;;;24.10;82.00;;;;;;5025256;28;20057;-63
2022/08/12 06:08:06;;;;;;;5.72;4.90;;;24.20;81.80;;;;;;5027164;28;20576;-60
2022/08/12 06:10:34;;;;;;;5.22;4.63;;;24.30;81.70;;;;;;5027585;28;20033;-62
2022/08/12 06:13:01;;;;;;;5.53;5.00;;;24.40;81.40;;;;;;5023440;28;20047;-59
2022/08/12 06:15:28;;;;;;;5.95;5.32;;;24.40;81.30;;;;;;5022803;28;20102;-63
2022/08/12 06:17:54;;;;;;;5.25;4.63;;;24.50;81.00;;;;;;5026229;28;20036;-63
2022/08/12 06:20:20;;;;;;;6.32;5.72;;;24.60;81.00;;;;;;5027669;28;20507;-62
2022/08/12 06:22:50;;;;;;;6.55;5.85;;;24.70;80.80;;;;;;5026225;28;20026;-63
2022/08/12 06:25:19;;;;;;;5.75;5.18;;;24.80;80.40;;;;;;5030302;28;20420;-63
2022/08/12 06:27:47;;;;;;;6.20;5.60;;;24.90;80.20;;;;;;5041318;28;20041;-63
2022/08/12 06:30:19;;;;;;;6.25;5.22;;;25.00;79.70;;;;;;5032708;28;20056;-63
2022/08/12 06:32:48;;;;;;;5.50;4.93;;;25.00;79.60;;;;;;5018163;28;20029;-62
2022/08/12 06:35:16;;;;;;;5.10;4.30;;;25.00;79.70;;;;;;5025851;28;20135;-63
2022/08/12 06:37:54;;;;;;;7.55;5.90;;;25.00;79.70;;;;;;5026238;28;20030;-60
2022/08/12 06:43:04;;;;;;;7.47;5.40;;;25.10;79.40;;;;;;5021588;28;20048;-60
2022/08/12 06:45:31;;;;;;;6.90;6.20;;;25.10;79.40;;;;;;5023434;28;20041;-63
2022/08/12 06:47:58;;;;;;;6.45;5.82;;;25.10;79.30;;;;;;5027070;28;20835;-64
2022/08/12 06:50:25;;;;;;;7.05;6.25;;;25.20;79.40;;;;;;5029685;28;20104;-63
2022/08/12 06:52:51;;;;;;;6.43;5.72;;;25.20;79.20;;;;;;5026628;28;20029;-60
2022/08/12 06:55:21;;;;;;;6.75;5.68;;;25.30;79.10;;;;;;5023114;28;20052;-61
2022/08/12 06:57:53;;;;;;;6.80;5.55;;;25.40;79.00;;;;;;5024548;28;20041;-63
2022/08/12 07:00:24;;;;;;;6.22;5.63;;;25.50;78.80;;;;;;5023716;28;20040;-61
2022/08/12 07:02:51;;;;;;;7.07;6.38;;;25.60;78.60;;;;;;5012675;28;20030;-62
2022/08/12 07:05:23;;;;;;;7.90;5.80;;;25.60;78.20;;;;;;5011668;28;20061;-63
2022/08/12 07:07:51;;;;;;;7.00;5.80;;;25.70;78.00;;;;;;5025300;28;20489;-60
2022/08/12 07:10:22;;;;;;;6.55;5.50;;;25.70;77.90;;;;;;5023060;28;20099;-62
2022/08/12 07:12:53;;;;;;;6.53;5.85;;;25.80;77.90;;;;;;5023573;28;20029;-64
2022/08/12 07:15:21;;;;;;;6.03;5.10;;;25.90;77.70;;;;;;5016278;28;20042;-63
2022/08/12 07:17:46;;;;;;;6.15;5.32;;;25.90;77.70;;;;;;5021042;28;20100;-59
2022/08/12 07:20:12;;;;;;;5.97;5.30;;;25.90;77.60;;;;;;5014698;28;21757;-65
2022/08/12 07:22:38;;;;;;;6.18;5.57;;;26.00;77.60;;;;;;5012315;28;20086;-60
2022/08/12 07:27:53;;;;;;;6.60;5.90;;;26.00;77.60;;;;;;5009058;28;20440;-63
2022/08/12 07:30:19;;;;;;;6.82;5.30;;;26.00;77.50;;;;;;5005242;28;20741;-62
2022/08/12 07:32:48;;;;;;;5.70;5.13;;;26.10;77.70;;;;;;5000910;28;20033;-62
2022/08/12 07:35:16;;;;;;;6.50;5.78;;;26.10;77.60;;;;;;5011041;28;20025;-62
2022/08/12 07:37:43;;;;;;;5.80;5.03;;;26.10;77.40;;;;;;5012489;28;20449;-62
2022/08/12 07:40:10;;;;;;;5.65;5.15;;;26.20;77.40;;;;;;5005077;28;20072;-62
2022/08/12 07:42:36;;;;;;;5.72;5.13;;;26.20;77.30;;;;;;5003383;28;20766;-61
2022/08/12 07:45:03;;;;;;;6.05;5.45;;;26.30;77.20;;;;;;5013684;28;20435;-59
2022/08/12 07:47:30;;;;;;;6.03;5.40;;;26.30;77.20;;;;;;5005644;28;20026;-60
2022/08/12 07:49:58;;;;;;;5.75;5.15;;;26.40;77.20;;;;;;5009936;28;20045;-62
2022/08/12 07:52:24;;;;;;;5.80;4.70;;;26.40;77.10;;;;;;5014013;28;20938;-63
2022/08/12 07:54:50;;;;;;;5.63;5.03;;;26.40;77.10;;;;;;5012454;28;20119;-61
2022/08/12 07:57:15;;;;;;;6.25;4.47;;;26.50;76.80;;;;;;5007837;28;20034;-61
2022/08/12 07:59:41;;;;;;;5.05;4.32;;;26.50;76.90;;;;;;4999865;28;20968;-59
2022/08/12 08:02:08;;;;;;;4.65;4.10;;;26.60;77.00;;;;;;4999442;28;20034;-60
2022/08/12 08:07:19;;;;;;;5.00;4.50;;;26.70;77.00;;;;;;4997203;28;20036;-61
2022/08/12 08:09:45;;;;;;;4.65;3.83;;;26.80;77.20;;;;;;5004255;28;20150;-60
2022/08/12 08:14:55;;;;;;;6.18;5.32;;;26.90;77.20;;;;;;5008671;28;20110;-59
2022/08/12 08:17:21;;;;;;;6.78;6.00;;;27.00;77.00;;;;;;5003224;28;20025;-63
2022/08/12 08:19:51;;;;;;;8.10;6.38;;;27.00;76.70;;;;;;5006071;28;20053;-64
2022/08/12 08:22:21;;;;;;;;;;;27.10;76.50;;;;;;5008790;28;20504;-64
2022/08/12 08:24:50;;;;;;;6.32;4.97;;;27.10;75.90;;;;;;5004791;28;19971;-60
2022/08/12 08:27:15;;;;;;;7.07;5.68;;;27.10;76.10;;;;;;5006868;28;21988;-60
2022/08/12 08:29:44;;;;;;;6.10;5.22;;;27.20;76.00;;;;;;5004818;28;20028;-61
2022/08/12 08:32:10;;;;;;;5.82;4.97;;;27.20;75.90;;;;;;5009039;28;20033;-60
2022/08/12 08:34:36;;;;;;;5.50;4.75;;;27.30;76.10;;;;;;5011206;28;20072;-62
2022/08/12 08:37:02;;;;;;;6.60;5.65;;;27.30;76.00;;;;;;5000928;28;20255;-62
2022/08/12 08:39:30;;;;;;;5.43;4.88;;;27.40;75.80;;;;;;5009012;28;20046;-61
2022/08/12 08:44:41;;;;;;;6.32;5.28;;;27.50;75.80;;;;;;5003552;28;20055;-59
2022/08/12 08:47:11;;;;;;;5.82;5.20;;;27.50;76.20;;;;;;5003172;28;20518;-62
2022/08/12 08:49:39;;;;;;;5.28;4.78;;;27.60;75.60;;;;;;5001361;28;20037;-63
2022/08/12 08:52:06;;;;;;;6.20;5.40;;;27.60;75.40;;;;;;5003298;28;20028;-61
2022/08/12 08:54:33;;;;;;;7.32;5.78;;;27.60;75.30;;;;;;5000676;28;20083;-59
2022/08/12 08:57:04;;;;;;;6.95;5.70;;;27.60;75.30;;;;;;5007511;28;20029;-59
2022/08/12 08:59:30;;;;;;;5.70;5.03;;;27.50;75.10;;;;;;5000202;28;20081;-58
2022/08/12 09:01:57;;;;;;;7.38;5.30;;;27.50;75.10;;;;;;5001861;28;20102;-58
2022/08/12 09:04:25;;;;;;;6.35;5.75;;;27.50;75.10;;;;;;5002577;28;20033;-58
2022/08/12 09:07:01;;;;;;;5.85;5.10;;;27.50;75.00;;;;;;5000012;28;20863;-60
2022/08/12 09:09:27;;;;;;;6.10;5.38;;;27.50;75.10;;;;;;4997302;28;20040;-60
2022/08/12 09:14:57;;;;;;;5.95;5.32;;;27.50;74.80;;;;;;4983227;28;21230;-58
2022/08/12 09:17:22;;;;;;;6.13;5.25;;;27.40;74.60;;;;;;4985848;28;20025;-62
2022/08/12 09:19:49;;;;;;;6.10;5.50;;;27.40;74.60;;;;;;4998874;28;20041;-60
2022/08/12 09:22:14;;;;;;;6.10;5.50;;;27.30;74.90;;;;;;5008491;28;20025;-62
2022/08/12 09:24:40;;;;;;;7.35;6.03;;;27.20;75.20;;;;;;5009885;28;20112;-62
2022/08/12 09:27:07;;;;;;;6.80;5.88;;;27.20;75.50;;;;;;5009006;28;20029;-62
2022/08/12 09:29:32;;;;;;;6.95;5.97;;;27.10;75.40;;;;;;5007258;28;20662;-60
2022/08/12 09:31:59;;;;;;;6.07;5.38;;;27.10;75.60;;;;;;4996611;28;20040;-63
2022/08/12 09:34:28;;;;;;;5.88;5.25;;;27.10;75.40;;;;;;5004407;28;20077;-62
2022/08/12 09:36:55;;;;;;;5.97;5.28;;;27.10;75.40;;;;;;5004527;28;20026;-61
2022/08/12 09:39:20;;;;;;;5.82;5.15;;;27.10;75.50;;;;;;4999477;28;20154;-59
2022/08/12 09:45:19;;;;;;;6.97;6.28;;;27.10;75.40;;;;;;5002283;28;20037;-62
2022/08/12 09:47:16;;;;;;;5.18;4.68;;;27.10;75.70;;;;;;5005517;28;20637;-62
2022/08/12 09:49:41;;;;;;;6.50;4.90;;;27.20;75.60;;;;;;5002985;28;20037;-62
2022/08/12 09:52:07;;;;;;;6.57;5.88;;;27.20;75.60;;;;;;5004914;28;20730;-59
2022/08/12 09:54:33;;;;;;;7.18;6.35;;;27.20;75.60;;;;;;4998327;28;20041;-63
2022/08/12 09:56:59;;;;;;;6.78;5.13;;;27.20;75.50;;;;;;5005457;28;20056;-60
2022/08/12 09:59:25;;;;;;;8.80;6.07;;;27.20;75.30;;;;;;5000175;28;20025;-59
2022/08/12 10:01:52;;;;;;;7.85;5.55;;;27.20;75.30;;;;;;5002681;28;20037;-59
2022/08/12 10:04:17;;;;;;;7.20;5.18;;;27.20;74.80;;;;;;5000796;28;20135;-61
2022/08/12 10:06:43;;;;;;;6.90;5.10;;;27.20;74.60;;;;;;5005871;28;20030;-62
2022/08/12 10:09:10;;;;;;;7.85;5.75;;;27.20;74.50;;;;;;5003782;28;21700;-60
2022/08/12 10:14:21;;;;;;;5.50;4.85;;;27.20;74.50;;;;;;5006356;28;20040;-60
2022/08/12 10:16:48;;;;;;;6.20;5.18;;;27.20;74.40;;;;;;5000304;28;20071;-59
2022/08/12 10:19:15;;;;;;;5.90;5.07;;;27.20;74.30;;;;;;5004044;28;20146;-61
2022/08/12 10:21:41;;;;;;;6.45;5.35;;;27.20;74.20;;;;;;5002357;28;20339;-61
2022/08/12 10:24:08;;;;;;;6.18;5.10;;;27.30;74.20;;;;;;5001750;28;20028;-63
2022/08/12 10:29:38;;;;;;;5.72;4.75;;;27.30;74.00;;;;;;5006641;28;20665;-60
2022/08/12 10:32:05;;;;;;;6.90;4.40;;;27.40;74.00;;;;;;4996880;28;20030;-59
2022/08/12 10:34:31;;;;;;;6.45;5.63;;;27.50;74.00;;;;;;4998725;28;20033;-61
2022/08/12 10:36:59;;;;;;;5.72;5.03;;;27.50;73.90;;;;;;5007946;28;20053;-60
2022/08/12 10:39:32;;;;;;;6.18;5.57;;;27.50;73.60;;;;;;5010074;28;20025;-63
2022/08/12 10:45:00;;;;;;;4.93;4.25;;;27.50;73.80;;;;;;5010591;28;20496;-62
2022/08/12 10:47:33;;;;;;;5.28;4.47;;;27.60;73.90;;;;;;5009763;28;20572;-59
2022/08/12 10:49:59;;;;;;;6.55;5.55;;;27.50;74.00;;;;;;5003459;28;20511;-64
2022/08/12 10:52:29;;;;;;;6.13;5.35;;;27.50;73.90;;;;;;5003723;28;20022;-62
2022/08/12 10:54:55;;;;;;;6.35;5.60;;;27.50;73.90;;;;;;5009157;28;20037;-60
2022/08/12 10:57:25;;;;;;;7.05;5.70;;;27.50;73.80;;;;;;5005208;28;20031;-59
2022/08/12 10:59:55;;;;;;;6.80;4.97;;;27.50;73.70;;;;;;5002713;28;20037;-59
2022/08/12 11:02:23;;;;;;;6.82;5.47;;;27.50;73.70;;;;;;4993484;28;20033;-60
2022/08/12 11:04:49;;;;;;;6.80;6.07;;;27.50;73.50;;;;;;5004754;28;20136;-59
2022/08/12 11:07:16;;;;;;;7.50;6.28;;;27.50;73.50;;;;;;5002585;28;20026;-61
2022/08/12 11:09:42;;;;;;;8.32;6.97;;;27.40;73.20;;;;;;5009003;28;20123;-61
2022/08/12 11:12:08;;;;;;;8.13;7.00;;;27.40;74.00;;;;;;5005843;28;20048;-59
2022/08/12 11:14:41;;;;;;;7.95;6.40;;;27.40;73.40;;;;;;5013804;28;20369;-62
2022/08/12 11:17:11;;;;;;;7.80;6.35;;;27.30;73.50;;;;;;5014610;28;20033;-62
2022/08/12 11:19:38;;;;;;;8.18;6.32;;;27.30;73.50;;;;;;5006483;28;20041;-60
2022/08/12 11:22:06;;;;;;;7.53;5.70;;;27.20;73.50;;;;;;5011077;28;20087;-60
2022/08/12 11:24:32;;;;;;;8.90;7.10;;;27.20;73.40;;;;;;4998837;28;20040;-62
2022/08/12 11:27:00;;;;;;;6.60;5.68;;;27.10;72.70;;;;;;5000964;28;20078;-61
2022/08/12 11:29:27;;;;;;;7.85;6.40;;;27.00;72.10;;;;;;5009279;28;20422;-61
2022/08/12 11:31:53;;;;;;;7.47;5.68;;;26.90;71.30;;;;;;5004368;28;20087;-57
2022/08/12 11:34:19;;;;;;;8.55;5.85;;;26.80;71.20;;;;;;5006681;28;20151;-62
2022/08/12 11:37:06;;;;;;;7.00;5.47;;;26.70;70.90;;;;;;5005472;28;20034;-62
2022/08/12 11:39:32;;;;;;;6.80;5.25;;;26.70;70.50;;;;;;5004271;28;20034;-62
2022/08/12 11:41:58;;;;;;;6.43;5.28;;;26.60;71.00;;;;;;5000539;28;20112;-61
2022/08/12 11:44:24;;;;;;;6.45;5.10;;;26.60;70.80;;;;;;5003163;28;20079;-57
2022/08/12 11:46:52;;;;;;;6.43;4.80;;;26.50;70.70;;;;;;5006182;28;20516;-56
2022/08/12 11:49:19;;;;;;;5.45;4.30;;;26.50;71.00;;;;;;4998932;28;20029;-61
2022/08/12 11:51:44;;;;;;;6.15;4.68;;;26.50;71.30;;;;;;5002602;28;20045;-60
2022/08/12 11:54:10;;;;;;;6.53;4.68;;;26.50;71.30;;;;;;5007581;28;20033;-61
2022/08/12 11:56:36;;;;;;;5.88;4.32;;;26.50;71.60;;;;;;5007126;28;20025;-61
2022/08/12 11:59:01;;;;;;;6.55;4.88;;;26.50;71.80;;;;;;5011965;28;20152;-61
2022/08/12 12:01:27;;;;;;;6.13;4.70;;;26.50;72.00;;;;;;5003868;28;20030;-62
2022/08/12 12:03:53;;;;;;;5.13;4.28;;;26.40;71.90;;;;;;4995436;28;20136;-62
2022/08/12 12:06:22;;;;;;;5.63;4.00;;;26.50;72.00;;;;;;4998351;28;20021;-61
2022/08/12 12:08:47;;;;;;;5.32;4.07;;;26.50;72.20;;;;;;4998516;28;20023;-60
2022/08/12 12:11:13;;;;;;;5.18;4.18;;;26.40;72.30;;;;;;4998936;28;20025;-64
2022/08/12 12:13:39;;;;;;;6.13;3.63;;;26.50;72.50;;;;;;5001005;28;20637;-62
2022/08/12 12:16:05;;;;;;;6.15;4.38;;;26.40;72.60;;;;;;5007316;28;20528;-62
2022/08/12 12:18:32;;;;;;;6.22;4.50;;;26.40;72.90;;;;;;5004400;28;20623;-60
2022/08/12 12:21:03;;;;;;;5.85;4.10;;;26.40;73.30;;;;;;5000961;28;20034;-58
2022/08/12 12:23:30;;;;;;;6.93;5.28;;;26.40;73.60;;;;;;5002437;28;20038;-60
2022/08/12 12:25:56;;;;;;;5.18;4.20;;;26.30;74.00;;;;;;5003844;28;21655;-60
2022/08/12 12:28:23;;;;;;;6.05;4.50;;;26.30;74.00;;;;;;5001927;28;20029;-61
2022/08/12 12:30:48;;;;;;;5.43;4.22;;;26.30;74.50;;;;;;5000265;28;20038;-59
2022/08/12 12:33:14;;;;;;;6.53;5.50;;;26.20;74.80;;;;;;4998186;28;20052;-59
2022/08/12 12:35:40;;;;;;;6.00;4.88;;;26.20;75.20;;;;;;5003896;28;20072;-59
2022/08/12 12:38:11;;;;;;;8.90;4.35;;;26.20;75.40;;;;;;5003364;28;20470;-59
2022/08/12 12:40:39;;;;;;;4.70;4.13;;;26.10;75.50;;;;;;4999431;28;20021;-60
2022/08/12 12:43:05;;;;;;;7.03;4.53;;;26.10;75.50;;;;;;5004867;28;20049;-60
2022/08/12 12:45:32;;;;;;;4.97;4.38;;;26.10;75.80;;;;;;5011226;28;20044;-58
2022/08/12 12:48:09;;;;;;;6.50;4.80;;;26.10;76.00;;;;;;5000929;28;20492;-58
2022/08/12 12:50:39;;;;;;;5.30;4.80;;;26.10;76.20;;;;;;4984667;28;21166;-59
2022/08/12 12:53:07;;;;;;;5.97;4.82;;;26.10;76.40;;;;;;4990204;28;20914;-63
2022/08/12 12:55:34;;;;;;;5.57;4.57;;;26.10;76.50;;;;;;4996507;28;20034;-61
2022/08/12 12:58:10;;;;;;;5.05;4.55;;;26.10;76.70;;;;;;4998467;28;20140;-58
2022/08/12 13:00:41;;;;;;;6.07;4.82;;;26.10;76.90;;;;;;4993802;28;20057;-61
2022/08/12 13:03:08;;;;;;;6.32;5.50;;;26.10;77.00;;;;;;4993157;28;20037;-62
2022/08/12 13:05:35;;;;;;;7.13;4.95;;;26.10;77.20;;;;;;5013512;28;20049;-61
2022/08/12 13:08:16;;;;;;;6.70;5.57;;;26.10;77.20;;;;;;5010160;28;20037;-57
2022/08/12 13:10:42;;;;;;;5.80;5.20;;;26.10;77.30;;;;;;5000641;28;20038;-62
2022/08/12 13:13:08;;;;;;;6.68;5.75;;;26.00;77.10;;;;;;5001010;28;20040;-61
2022/08/12 13:15:34;;;;;;;6.68;4.97;;;26.00;77.30;;;;;;4999101;28;20064;-59
2022/08/12 13:18:03;;;;;;;6.72;5.35;;;26.00;77.30;;;;;;4997984;28;20028;-60
2022/08/12 13:20:30;;;;;;;6.75;5.60;;;26.00;77.50;;;;;;5002651;28;20030;-61
2022/08/12 13:22:56;;;;;;;5.38;4.70;;;26.00;77.60;;;;;;4997807;28;20885;-59
2022/08/12 13:25:23;;;;;;;6.05;4.97;;;26.00;77.80;;;;;;4999834;28;20037;-61
2022/08/12 13:27:49;;;;;;;5.75;4.93;;;26.00;77.60;;;;;;5004054;28;20052;-58
2022/08/12 13:30:19;;;;;;;7.00;6.03;;;26.00;77.60;;;;;;5006595;28;20044;-61
2022/08/12 13:33:02;;;;;;;5.88;5.28;;;26.00;77.60;;;;;;5005482;28;20033;-59
2022/08/12 13:35:29;;;;;;;5.70;5.10;;;26.00;77.60;;;;;;5002121;28;20107;-60
2022/08/12 13:37:58;;;;;;;7.18;5.70;;;26.00;77.50;;;;;;5005241;28;20030;-59
2022/08/12 13:40:26;;;;;;;6.22;5.43;;;26.10;77.70;;;;;;4999313;28;20037;-62
2022/08/12 13:42:56;;;;;;;6.78;6.07;;;26.10;77.70;;;;;;4997740;28;20049;-58
2022/08/12 13:45:25;;;;;;;5.73;4.97;;;26.10;77.70;;;;;;5004986;28;20041;-60
2022/08/12 13:48:02;;;;;;;6.90;6.13;;;26.10;77.70;;;;;;5004206;28;20507;-58
2022/08/12 13:50:36;;;;;;;8.05;7.25;;;26.10;77.90;;;;;;5000833;28;20037;-60
2022/08/12 13:53:10;;;;;;;8.10;7.22;;;26.10;77.50;;;;;;5001490;28;20061;-60
2022/08/12 13:55:38;;;;;;;7.85;6.60;;;26.10;77.20;;;;;;4996559;28;20358;-62
2022/08/12 13:58:04;;;;;;;9.88;7.35;;;26.10;77.10;;;;;;5001173;28;20033;-62
2022/08/12 14:00:32;;;;;;;7.72;6.93;;;26.20;76.90;;;;;;4998970;28;20028;-59
2022/08/12 14:02:58;;;;;;;9.57;7.85;;;26.20;76.80;;;;;;5005603;28;20057;-60
2022/08/12 14:05:26;;;;;;;8.48;7.30;;;26.20;76.80;;;;;;4999255;28;20026;-58
2022/08/12 14:07:56;;;;;;;8.75;7.88;;;26.20;76.90;;;;;;5003956;28;20026;-58
2022/08/12 14:10:37;;;;;;;7.45;6.72;;;26.10;76.90;;;;;;5013618;28;20363;-57
2022/08/12 14:13:10;;;;;;;;;;;26.20;76.90;;;;;;5008746;28;20037;-60
2022/08/12 14:15:38;;;;;;;7.13;5.97;;;26.20;77.10;;;;;;5009957;28;19990;-64
2022/08/12 14:18:10;;;;;;;7.35;6.60;;;26.20;77.00;;;;;;5007362;28;20029;-58
2022/08/12 14:20:36;;;;;;;7.53;6.40;;;26.20;76.90;;;;;;5006263;28;20025;-63
2022/08/12 14:23:02;;;;;;;7.10;6.40;;;26.20;77.00;;;;;;5006539;28;20025;-60
2022/08/12 14:25:27;;;;;;;7.90;6.82;;;26.20;77.20;;;;;;5009672;28;20040;-61
2022/08/12 14:27:54;;;;;;;7.43;6.30;;;26.20;77.20;;;;;;5004957;28;20037;-61
2022/08/12 14:30:22;;;;;;;7.65;6.47;;;26.20;77.30;;;;;;5008592;28;20022;-61
2022/08/12 14:32:48;;;;;;;7.03;6.10;;;26.20;77.30;;;;;;5004775;28;20112;-61
2022/08/12 14:35:13;;;;;;;6.57;5.95;;;26.10;77.40;;;;;;5007842;28;22282;-58
2022/08/12 14:37:40;;;;;;;7.00;6.30;;;26.20;77.60;;;;;;5008264;28;20652;-59
2022/08/12 14:40:08;;;;;;;6.30;5.60;;;26.10;77.60;;;;;;5009531;28;20032;-57
2022/08/12 14:42:34;;;;;;;6.28;5.43;;;26.10;77.60;;;;;;4999029;28;20148;-58
2022/08/12 14:45:00;;;;;;;7.05;5.78;;;26.10;77.80;;;;;;5019620;28;20037;-57
2022/08/12 14:47:26;;;;;;;5.97;5.38;;;26.10;77.70;;;;;;5000086;28;20033;-58
2022/08/12 14:49:52;;;;;;;6.65;5.95;;;26.10;77.90;;;;;;4994652;28;20091;-63
2022/08/12 14:52:18;;;;;;;6.65;6.05;;;26.20;77.90;;;;;;5001536;28;20034;-58